createdAt,value
2019-02-15T00:00:28.121Z,103063.11
2019-02-15T00:02:56.979Z,103067.58
2019-02-15T00:05:25.846Z,103059.70
2019-02-15T00:07:54.733Z,103071.95
2019-02-15T00:10:23.601Z,103064.23
2019-02-15T00:12:52.457Z,103062.38
2019-02-15T00:15:21.349Z,103061.25
2019-02-15T00:17:51.859Z,103056.45
2019-02-15T00:20:37.662Z,103060.48
2019-02-15T00:23:06.545Z,103055.55
2019-02-15T00:25:35.410Z,103061.67
2019-02-15T00:28:04.283Z,103065.40
2019-02-15T00:30:33.173Z,103065.18
2019-02-15T00:33:02.043Z,103060.47
2019-02-15T00:35:30.899Z,103062.22
2019-02-15T00:37:59.780Z,103054.80
2019-02-15T00:40:28.656Z,103064.88
2019-02-15T00:42:57.545Z,103064.16
2019-02-15T00:45:28.055Z,103069.77
2019-02-15T00:47:58.555Z,103069.55
2019-02-15T00:50:29.081Z,103068.80
2019-02-15T00:52:59.586Z,103061.67
2019-02-15T00:55:30.085Z,103060.23
2019-02-15T00:58:03.345Z,103065.84
2019-02-15T01:00:36.255Z,103061.72
2019-02-15T01:03:23.086Z,103064.97
2019-02-15T01:05:59.631Z,103065.02
2019-02-15T01:08:41.989Z,103063.39
2019-02-15T01:11:12.505Z,103060.95
2019-02-15T01:13:41.384Z,103063.73
2019-02-15T01:16:10.243Z,103059.89
2019-02-15T01:18:39.137Z,103061.39
2019-02-15T01:21:07.999Z,103063.89
2019-02-15T01:23:36.858Z,103059.77
2019-02-15T01:26:10.029Z,103052.06
2019-02-15T01:28:46.494Z,103050.90
2019-02-15T01:31:33.128Z,103054.98
2019-02-15T01:34:03.629Z,103056.31
2019-02-15T01:36:36.743Z,103053.14
2019-02-15T01:39:17.474Z,103056.57
2019-02-15T01:41:59.897Z,103049.42
2019-02-15T01:44:33.056Z,103048.78
2019-02-15T01:47:03.574Z,103049.05
2019-02-15T01:49:32.431Z,103041.89
2019-02-15T01:52:01.325Z,103036.45
2019-02-15T01:54:30.183Z,103036.93
2019-02-15T01:56:59.036Z,103031.92
2019-02-15T01:59:27.909Z,103031.75
2019-02-15T02:01:56.772Z,103025.33
2019-02-15T02:04:25.663Z,103025.00
2019-02-15T02:06:54.671Z,103016.73
2019-02-15T02:09:23.521Z,103020.63
2019-02-15T02:11:52.404Z,103020.84
2019-02-15T02:14:21.519Z,103021.73
2019-02-15T02:16:50.417Z,103017.13
2019-02-15T02:19:19.271Z,103013.58
2019-02-15T02:21:48.120Z,103009.51
2019-02-15T02:24:16.999Z,103011.94
2019-02-15T02:26:45.861Z,103013.19
2019-02-15T02:29:14.741Z,103014.25
2019-02-15T02:31:43.600Z,103009.94
2019-02-15T02:34:12.470Z,103009.77
2019-02-15T02:36:49.399Z,103008.56
2019-02-15T02:39:18.264Z,103012.97
2019-02-15T02:41:47.296Z,103011.47
2019-02-15T02:44:16.178Z,103011.13
2019-02-15T02:46:45.026Z,103017.32
2019-02-15T02:49:13.884Z,103014.91
2019-02-15T02:51:42.759Z,103012.73
2019-02-15T02:54:11.631Z,103008.12
2019-02-15T02:56:40.482Z,103000.81
2019-02-15T02:59:09.372Z,102998.50
2019-02-15T03:01:38.223Z,103002.31
2019-02-15T03:04:07.096Z,103004.09
2019-02-15T03:06:35.958Z,102997.62
2019-02-15T03:09:07.940Z,103001.19
2019-02-15T03:11:36.797Z,102997.56
2019-02-15T03:14:11.331Z,102995.80
2019-02-15T03:16:36.255Z,103002.55
2019-02-15T03:19:05.128Z,103000.09
2019-02-15T03:21:33.991Z,103002.55
2019-02-15T03:24:02.908Z,103000.62
2019-02-15T03:26:31.776Z,103000.58
2019-02-15T03:29:00.640Z,103002.86
2019-02-15T03:31:29.488Z,102998.20
2019-02-15T03:33:58.392Z,103002.86
2019-02-15T03:36:31.591Z,103019.14
2019-02-15T03:39:10.810Z,103012.78
2019-02-15T03:41:39.653Z,103017.55
2019-02-15T03:44:08.508Z,103010.61
2019-02-15T03:46:37.393Z,103019.43
2019-02-15T03:49:06.282Z,103017.71
2019-02-15T03:51:35.135Z,103024.72
2019-02-15T03:54:04.013Z,103025.94
2019-02-15T03:56:32.857Z,103022.19
2019-02-15T03:59:01.718Z,103019.00
2019-02-15T04:01:30.603Z,103009.37
2019-02-15T04:03:59.442Z,103010.76
2019-02-15T04:06:28.333Z,103010.86
2019-02-15T04:08:57.204Z,103015.41
2019-02-15T04:11:26.103Z,103018.94
2019-02-15T04:13:55.022Z,103018.80
2019-02-15T04:16:23.873Z,103022.33
2019-02-15T04:18:52.729Z,103021.98
2019-02-15T04:21:21.666Z,103021.20
2019-02-15T04:23:50.474Z,103028.44
2019-02-15T04:26:19.343Z,103022.80
2019-02-15T04:28:48.208Z,103020.66
2019-02-15T04:31:17.078Z,103015.03
2019-02-15T04:33:45.954Z,103015.78
2019-02-15T04:36:14.816Z,103017.75
2019-02-15T04:38:43.688Z,103016.20
2019-02-15T04:41:12.578Z,103021.78
2019-02-15T04:43:41.436Z,103024.70
2019-02-15T04:46:10.334Z,103024.16
2019-02-15T04:48:39.183Z,103022.81
2019-02-15T04:51:08.069Z,103020.91
2019-02-15T04:53:36.932Z,103020.45
2019-02-15T04:56:05.795Z,103027.31
2019-02-15T04:58:34.668Z,103022.69
2019-02-15T05:01:03.551Z,103028.34
2019-02-15T05:03:32.422Z,103027.53
2019-02-15T05:06:01.288Z,103031.34
2019-02-15T05:08:30.194Z,103033.16
2019-02-15T05:10:59.080Z,103036.78
2019-02-15T05:13:27.945Z,103035.69
2019-02-15T05:15:56.808Z,103033.91
2019-02-15T05:18:25.698Z,103026.66
2019-02-15T05:20:54.559Z,103025.34
2019-02-15T05:23:23.408Z,103021.41
2019-02-15T05:25:52.274Z,103025.38
2019-02-15T05:28:21.137Z,103030.50
2019-02-15T05:30:49.994Z,103021.80
2019-02-15T05:33:18.867Z,103025.96
2019-02-15T05:35:47.740Z,103026.85
2019-02-15T05:38:16.701Z,103023.02
2019-02-15T05:40:45.591Z,103022.42
2019-02-15T05:43:14.448Z,103030.06
2019-02-15T05:45:43.318Z,103021.82
2019-02-15T05:48:12.176Z,103025.49
2019-02-15T05:50:41.039Z,103031.70
2019-02-15T05:53:09.906Z,103028.12
2019-02-15T05:55:38.803Z,103031.64
2019-02-15T05:58:07.654Z,103031.09
2019-02-15T06:00:37.347Z,103031.58
2019-02-15T06:03:06.412Z,103034.03
2019-02-15T06:05:35.291Z,103038.28
2019-02-15T06:08:04.191Z,103036.82
2019-02-15T06:10:33.048Z,103035.98
2019-02-15T06:13:01.906Z,103035.02
2019-02-15T06:15:30.794Z,103027.94
2019-02-15T06:17:59.656Z,103028.50
2019-02-15T06:20:28.545Z,103030.09
2019-02-15T06:22:57.437Z,103034.44
2019-02-15T06:25:26.316Z,103026.17
2019-02-15T06:27:55.155Z,103024.66
2019-02-15T06:30:24.043Z,103030.13
2019-02-15T06:32:52.903Z,103032.83
2019-02-15T06:35:21.760Z,103035.69
2019-02-15T06:37:50.685Z,103031.88
2019-02-15T06:40:19.544Z,103043.78
2019-02-15T06:42:48.417Z,103047.23
2019-02-15T06:45:24.386Z,103041.70
2019-02-15T06:47:47.890Z,103042.44
2019-02-15T06:50:16.766Z,103042.69
2019-02-15T06:52:45.639Z,103039.68
2019-02-15T06:55:14.493Z,103041.88
2019-02-15T06:57:43.372Z,103044.95
2019-02-15T07:00:23.080Z,103046.76
2019-02-15T07:02:59.379Z,103049.18
2019-02-15T07:05:28.266Z,103046.58
2019-02-15T07:07:57.202Z,103043.69
2019-02-15T07:10:26.085Z,103045.16
2019-02-15T07:12:54.976Z,103045.23
2019-02-15T07:15:23.908Z,103049.98
2019-02-15T07:17:52.772Z,103051.59
2019-02-15T07:20:21.861Z,103042.70
2019-02-15T07:22:50.760Z,103047.58
2019-02-15T07:25:19.636Z,103044.38
2019-02-15T07:27:48.507Z,103047.80
2019-02-15T07:30:17.490Z,103049.81
2019-02-15T07:32:46.316Z,103058.36
2019-02-15T07:35:15.203Z,103059.27
2019-02-15T07:37:44.107Z,103057.59
2019-02-15T07:40:12.995Z,103062.09
2019-02-15T07:42:41.861Z,103064.22
2019-02-15T07:45:11.510Z,103067.39
2019-02-15T07:47:40.371Z,103060.70
2019-02-15T07:50:11.928Z,103064.34
2019-02-15T07:52:40.815Z,103061.55
2019-02-15T07:55:10.062Z,103063.95
2019-02-15T07:57:38.927Z,103056.98
2019-02-15T08:00:13.642Z,103060.69
2019-02-15T08:02:42.486Z,103053.61
2019-02-15T08:05:11.744Z,103051.70
2019-02-15T08:07:40.631Z,103054.78
2019-02-15T08:10:11.160Z,103051.31
2019-02-15T08:12:40.036Z,103050.31
2019-02-15T08:15:10.519Z,103049.41
2019-02-15T08:17:39.389Z,103048.17
2019-02-15T08:20:10.853Z,103050.86
2019-02-15T08:22:39.735Z,103044.30
2019-02-15T08:25:09.439Z,103053.34
2019-02-15T08:27:39.095Z,103052.75
2019-02-15T08:30:11.790Z,103056.84
2019-02-15T08:32:40.677Z,103055.84
2019-02-15T08:35:10.882Z,103058.37
2019-02-15T08:37:39.750Z,103057.72
2019-02-15T08:40:10.668Z,103056.35
2019-02-15T08:42:39.529Z,103055.27
2019-02-15T08:45:11.470Z,103057.53
2019-02-15T08:47:40.591Z,103059.11
2019-02-15T08:50:11.327Z,103066.92
2019-02-15T08:52:40.206Z,103063.64
2019-02-15T08:55:10.912Z,103062.12
2019-02-15T08:57:39.820Z,103056.11
2019-02-15T09:00:11.249Z,103053.70
2019-02-15T09:02:40.134Z,103061.95
2019-02-15T09:05:11.440Z,103063.48
2019-02-15T09:07:40.373Z,103068.58
2019-02-15T09:10:11.516Z,103068.19
2019-02-15T09:12:40.362Z,103064.09
2019-02-15T09:15:12.152Z,103068.47
2019-02-15T09:17:41.103Z,103059.05
2019-02-15T09:20:11.608Z,103073.18
2019-02-15T09:22:40.195Z,103072.84
2019-02-15T09:25:10.807Z,103067.73
2019-02-15T09:27:41.088Z,103073.86
2019-02-15T09:30:14.517Z,103072.12
2019-02-15T09:32:43.082Z,103067.14
2019-02-15T09:35:12.516Z,103066.41
2019-02-15T09:37:41.106Z,103066.51
2019-02-15T09:40:10.740Z,103065.95
2019-02-15T09:42:39.294Z,103059.84
2019-02-15T09:45:12.673Z,103064.91
2019-02-15T09:47:41.246Z,103057.73
2019-02-15T09:50:12.217Z,103054.88
2019-02-15T09:52:41.146Z,103059.81
2019-02-15T09:55:09.730Z,103059.33
2019-02-15T09:57:38.345Z,103052.52
2019-02-15T10:00:10.997Z,103056.53
2019-02-15T10:02:39.630Z,103044.37
2019-02-15T10:05:09.039Z,103036.64
2019-02-15T10:07:37.638Z,103039.08
2019-02-15T10:10:08.854Z,103037.16
2019-02-15T10:12:37.404Z,103035.86
2019-02-15T10:15:10.526Z,103034.56
2019-02-15T10:17:39.100Z,103030.41
2019-02-15T10:20:09.985Z,103033.10
2019-02-15T10:22:38.553Z,103030.37
2019-02-15T10:25:08.972Z,103029.62
2019-02-15T10:27:37.551Z,103034.52
2019-02-15T10:30:09.327Z,103030.05
2019-02-15T10:32:37.893Z,103023.30
2019-02-15T10:35:11.064Z,103023.92
2019-02-15T10:37:39.645Z,103020.73
2019-02-15T10:40:11.982Z,103015.77
2019-02-15T10:42:40.561Z,103019.57
2019-02-15T10:45:16.597Z,103015.92
2019-02-15T10:47:45.203Z,103012.89
2019-02-15T10:50:13.762Z,103010.36
2019-02-15T10:52:42.343Z,103002.19
2019-02-15T10:55:11.138Z,102998.06
2019-02-15T10:57:39.716Z,103003.30
2019-02-15T11:00:15.475Z,102993.83
2019-02-15T11:02:44.091Z,102990.16
2019-02-15T11:05:12.662Z,102990.31
2019-02-15T11:07:41.243Z,102986.73
2019-02-15T11:10:10.350Z,102983.14
2019-02-15T11:12:38.930Z,102977.67
2019-02-15T11:15:13.293Z,102976.55
2019-02-15T11:17:41.885Z,102976.55
2019-02-15T11:20:13.063Z,102977.77
2019-02-15T11:22:41.651Z,102971.49
2019-02-15T11:25:11.576Z,102966.48
2019-02-15T11:27:40.146Z,102960.71
2019-02-15T11:30:11.529Z,102955.03
2019-02-15T11:32:40.132Z,102959.58
2019-02-15T11:35:11.032Z,102954.25
2019-02-15T11:37:39.594Z,102954.25
2019-02-15T11:40:11.236Z,102946.02
2019-02-15T11:42:39.830Z,102951.09
2019-02-15T11:45:14.058Z,102950.93
2019-02-15T11:47:42.621Z,102949.44
2019-02-15T11:50:13.226Z,102938.84
2019-02-15T11:52:41.792Z,102938.84
2019-02-15T11:55:11.242Z,102938.95
2019-02-15T11:57:39.894Z,102942.53
2019-02-15T12:00:14.544Z,102937.63
2019-02-15T12:02:43.047Z,102944.13
2019-02-15T12:05:11.634Z,102947.67
2019-02-15T12:07:40.196Z,102942.81
2019-02-15T12:10:10.493Z,102947.05
2019-02-15T12:12:39.081Z,102938.06
2019-02-15T12:15:09.304Z,102936.00
2019-02-15T12:17:37.870Z,102931.59
2019-02-15T12:20:11.696Z,102929.47
2019-02-15T12:22:40.295Z,102937.17
2019-02-15T12:25:09.257Z,102927.76
2019-02-15T12:27:37.797Z,102916.34
2019-02-15T12:30:11.745Z,102924.41
2019-02-15T12:32:40.307Z,102930.80
2019-02-15T12:35:10.131Z,102934.12
2019-02-15T12:37:38.713Z,102921.95
2019-02-15T12:40:09.242Z,102927.69
2019-02-15T12:42:37.815Z,102915.97
2019-02-15T12:45:09.731Z,102919.16
2019-02-15T12:47:38.326Z,102917.27
2019-02-15T12:50:10.339Z,102912.73
2019-02-15T12:52:39.021Z,102907.23
2019-02-15T12:55:07.764Z,102913.46
2019-02-15T12:57:36.409Z,102901.33
2019-02-15T13:00:08.150Z,102898.83
2019-02-15T13:02:36.784Z,102896.83
2019-02-15T13:05:07.437Z,102900.03
2019-02-15T13:07:36.003Z,102898.41
2019-02-15T13:10:07.301Z,102889.48
2019-02-15T13:12:35.882Z,102894.22
2019-02-15T13:15:04.972Z,102890.40
2019-02-15T13:17:35.196Z,102888.10
2019-02-15T13:20:04.648Z,102886.30
2019-02-15T13:22:33.259Z,102892.38
2019-02-15T13:25:01.830Z,102883.67
2019-02-15T13:27:30.435Z,102884.39
2019-02-15T13:29:58.980Z,102883.09
2019-02-15T13:32:27.564Z,102882.55
2019-02-15T13:34:56.215Z,102878.49
2019-02-15T13:37:24.819Z,102870.92
2019-02-15T13:39:53.365Z,102871.05
2019-02-15T13:42:21.943Z,102869.52
2019-02-15T13:44:50.524Z,102866.31
2019-02-15T13:47:19.079Z,102866.59
2019-02-15T13:49:47.643Z,102866.55
2019-02-15T13:52:16.247Z,102868.35
2019-02-15T13:54:44.808Z,102863.68
2019-02-15T13:57:13.367Z,102866.11
2019-02-15T13:59:41.951Z,102860.94
2019-02-15T14:02:10.535Z,102862.61
2019-02-15T14:04:39.108Z,102854.97
2019-02-15T14:07:16.302Z,102853.55
2019-02-15T14:09:44.895Z,102850.08
2019-02-15T14:12:13.483Z,102850.47
2019-02-15T14:14:42.085Z,102849.69
2019-02-15T14:17:10.663Z,102848.19
2019-02-15T14:19:39.237Z,102849.59
2019-02-15T14:22:07.829Z,102848.59
2019-02-15T14:24:36.415Z,102839.95
2019-02-15T14:27:04.989Z,102841.77
2019-02-15T14:29:33.567Z,102841.95
2019-02-15T14:32:02.154Z,102840.50
2019-02-15T14:34:30.745Z,102840.22
2019-02-15T14:36:59.353Z,102834.27
2019-02-15T14:39:27.913Z,102831.18
2019-02-15T14:41:56.484Z,102824.89
2019-02-15T14:44:25.122Z,102826.49
2019-02-15T14:46:53.645Z,102816.45
2019-02-15T14:49:22.224Z,102816.50
2019-02-15T14:51:50.814Z,102810.94
2019-02-15T14:54:19.403Z,102811.05
2019-02-15T14:56:47.980Z,102808.66
2019-02-15T14:59:16.566Z,102815.83
2019-02-15T15:01:45.425Z,102808.06
2019-02-15T15:04:13.989Z,102808.67
2019-02-15T15:06:42.578Z,102800.50
2019-02-15T15:09:11.140Z,102794.48
2019-02-15T15:11:39.701Z,102801.27
2019-02-15T15:14:08.284Z,102795.87
2019-02-15T15:16:36.880Z,102801.27
2019-02-15T15:19:05.461Z,102797.48
2019-02-15T15:21:35.038Z,102793.18
2019-02-15T15:24:03.710Z,102792.41
2019-02-15T15:26:32.312Z,102786.81
2019-02-15T15:29:00.916Z,102786.32
2019-02-15T15:31:29.496Z,102796.44
2019-02-15T15:33:58.063Z,102794.64
2019-02-15T15:36:26.643Z,102789.52
2019-02-15T15:38:55.222Z,102790.05
2019-02-15T15:41:29.620Z,102785.32
2019-02-15T15:43:58.183Z,102794.74
2019-02-15T15:46:26.781Z,102785.64
2019-02-15T15:48:55.386Z,102785.91
2019-02-15T15:51:23.942Z,102796.19
2019-02-15T15:53:52.520Z,102787.49
2019-02-15T15:56:21.089Z,102787.49
2019-02-15T15:58:51.546Z,102783.61
2019-02-15T16:01:19.994Z,102778.72
2019-02-15T16:03:48.581Z,102778.72
2019-02-15T16:06:24.141Z,102788.91
2019-02-15T16:08:47.500Z,102788.93
2019-02-15T16:11:16.080Z,102788.30
2019-02-15T16:13:44.653Z,102791.33
2019-02-15T16:16:13.232Z,102784.38
2019-02-15T16:18:41.840Z,102787.10
2019-02-15T16:21:10.416Z,102788.47
2019-02-15T16:23:38.985Z,102786.53
2019-02-15T16:26:07.594Z,102789.77
2019-02-15T16:28:36.141Z,102789.92
2019-02-15T16:31:04.712Z,102788.73
2019-02-15T16:33:33.289Z,102790.26
2019-02-15T16:36:01.893Z,102793.11
2019-02-15T16:38:30.485Z,102786.70
2019-02-15T16:40:59.037Z,102792.58
2019-02-15T16:43:27.614Z,102792.98
2019-02-15T16:45:56.183Z,102793.91
2019-02-15T16:48:24.767Z,102777.06
2019-02-15T16:50:53.318Z,102780.11
2019-02-15T16:53:21.934Z,102780.11
2019-02-15T16:55:50.496Z,102779.91
2019-02-15T16:58:19.086Z,102779.91
2019-02-15T17:00:47.676Z,102781.45
2019-02-15T17:03:16.224Z,102780.26
2019-02-15T17:05:44.789Z,102780.26
2019-02-15T17:08:13.374Z,102781.55
2019-02-15T17:10:41.958Z,102781.55
2019-02-15T17:13:10.555Z,102780.94
2019-02-15T17:15:39.115Z,102780.94
2019-02-15T17:18:07.682Z,102774.92
2019-02-15T17:20:36.264Z,102774.92
2019-02-15T17:23:04.859Z,102773.47
2019-02-15T17:25:33.434Z,102772.45
2019-02-15T17:28:02.023Z,102772.45
2019-02-15T17:30:30.605Z,102773.05
2019-02-15T17:32:59.188Z,102773.05
2019-02-15T17:35:27.770Z,102769.23
2019-02-15T17:37:56.360Z,102771.70
2019-02-15T17:40:24.941Z,102777.33
2019-02-15T17:42:53.529Z,102778.36
2019-02-15T17:45:22.096Z,102778.36
2019-02-15T17:47:50.683Z,102763.55
2019-02-15T17:50:19.304Z,102757.40
2019-02-15T17:52:48.055Z,102757.40
2019-02-15T17:55:19.576Z,102758.14
2019-02-15T17:57:48.168Z,102751.94
2019-02-15T18:00:18.377Z,102751.94
2019-02-15T18:02:46.970Z,102757.15
2019-02-15T18:05:18.232Z,102751.87
2019-02-15T18:07:50.881Z,102751.87
2019-02-15T18:10:19.501Z,102756.94
2019-02-15T18:12:48.070Z,102755.48
2019-02-15T18:15:16.719Z,102751.26
2019-02-15T18:17:45.295Z,102759.91
2019-02-15T18:20:14.254Z,102754.55
2019-02-15T18:22:42.847Z,102756.52
2019-02-15T18:25:11.749Z,102751.25
2019-02-15T18:27:40.391Z,102749.36
2019-02-15T18:30:14.387Z,102744.10
2019-02-15T18:32:42.959Z,102754.64
2019-02-15T18:35:11.563Z,102748.95
2019-02-15T18:37:40.152Z,102747.16
2019-02-15T18:40:10.679Z,102747.16
2019-02-15T18:42:39.275Z,102741.09
2019-02-15T18:45:13.441Z,102736.58
2019-02-15T18:47:42.097Z,102742.02
2019-02-15T18:50:10.864Z,102747.47
2019-02-15T18:52:39.424Z,102747.78
2019-02-15T18:55:11.519Z,102743.85
2019-02-15T18:57:40.126Z,102744.30
2019-02-15T19:00:17.125Z,102746.58
2019-02-15T19:02:48.652Z,102741.84
2019-02-15T19:05:17.268Z,102737.95
2019-02-15T19:07:45.839Z,102740.72
2019-02-15T19:10:17.285Z,102738.14
2019-02-15T19:12:46.052Z,102731.50
2019-02-15T19:15:16.291Z,102733.19
2019-02-15T19:17:44.882Z,102727.31
2019-02-15T19:20:15.282Z,102726.91
2019-02-15T19:22:43.968Z,102733.09
2019-02-15T19:25:14.566Z,102728.81
2019-02-15T19:27:43.178Z,102722.93
2019-02-15T19:30:20.095Z,102723.37
2019-02-15T19:32:48.871Z,102719.22
2019-02-15T19:35:17.512Z,102716.41
2019-02-15T19:37:46.095Z,102709.11
2019-02-15T19:40:17.384Z,102709.94
2019-02-15T19:42:46.951Z,102711.61
2019-02-15T19:45:15.703Z,102706.17
2019-02-15T19:47:44.310Z,102710.58
2019-02-15T19:50:17.721Z,102706.59
2019-02-15T19:52:48.137Z,102707.66
2019-02-15T19:55:16.909Z,102702.33
2019-02-15T19:57:45.444Z,102709.22
2019-02-15T20:00:16.496Z,102706.73
2019-02-15T20:02:45.096Z,102704.61
2019-02-15T20:05:13.846Z,102705.94
2019-02-15T20:07:42.420Z,102698.18
2019-02-15T20:10:14.837Z,102697.35
2019-02-15T20:12:43.460Z,102694.14
2019-02-15T20:15:13.822Z,102696.67
2019-02-15T20:17:42.448Z,102697.39
2019-02-15T20:20:12.955Z,102693.14
2019-02-15T20:22:41.625Z,102687.60
2019-02-15T20:25:11.971Z,102694.52
2019-02-15T20:27:40.575Z,102695.06
2019-02-15T20:30:14.496Z,102685.38
2019-02-15T20:32:43.112Z,102688.61
2019-02-15T20:35:13.438Z,102689.80
2019-02-15T20:37:42.075Z,102691.62
2019-02-15T20:40:12.098Z,102684.80
2019-02-15T20:42:40.716Z,102682.22
2019-02-15T20:45:16.604Z,102686.08
2019-02-15T20:47:45.214Z,102674.63
2019-02-15T20:50:14.453Z,102680.77
2019-02-15T20:52:43.044Z,102681.19
2019-02-15T20:55:19.130Z,102683.75
2019-02-15T20:57:47.702Z,102678.10
2019-02-15T21:00:27.708Z,102677.57
2019-02-15T21:02:56.295Z,102674.52
2019-02-15T21:05:24.873Z,102675.25
2019-02-15T21:07:53.467Z,102675.52
2019-02-15T21:10:22.549Z,102673.70
2019-02-15T21:12:51.170Z,102667.27
2019-02-15T21:15:20.011Z,102667.81
2019-02-15T21:17:49.524Z,102662.11
2019-02-15T21:20:18.172Z,102662.38
2019-02-15T21:22:46.715Z,102661.36
2019-02-15T21:25:16.748Z,102658.80
2019-02-15T21:27:45.424Z,102655.69
2019-02-15T21:30:15.727Z,102651.94
2019-02-15T21:32:44.329Z,102653.09
2019-02-15T21:35:13.181Z,102655.05
2019-02-15T21:37:41.784Z,102647.16
2019-02-15T21:40:16.062Z,102649.48
2019-02-15T21:42:44.643Z,102649.77
2019-02-15T21:45:13.810Z,102639.68
2019-02-15T21:47:42.479Z,102643.05
2019-02-15T21:50:17.281Z,102639.94
2019-02-15T21:52:44.299Z,102642.52
2019-02-15T21:55:14.998Z,102638.13
2019-02-15T21:57:43.881Z,102631.95
2019-02-15T22:00:18.246Z,102627.68
2019-02-15T22:02:47.120Z,102631.41
2019-02-15T22:05:16.582Z,102629.09
2019-02-15T22:07:45.613Z,102627.82
2019-02-15T22:10:14.551Z,102628.32
2019-02-15T22:12:43.423Z,102626.75
2019-02-15T22:15:14.784Z,102622.88
2019-02-15T22:17:43.695Z,102627.53
2019-02-15T22:20:14.213Z,102618.62
2019-02-15T22:22:43.091Z,102617.48
2019-02-15T22:25:11.972Z,102621.59
2019-02-15T22:27:40.871Z,102618.62
2019-02-15T22:30:15.254Z,102619.77
2019-02-15T22:32:44.133Z,102618.96
2019-02-15T22:35:12.988Z,102612.28
2019-02-15T22:37:41.880Z,102621.25
2019-02-15T22:40:27.982Z,102618.56
2019-02-15T22:42:59.127Z,102616.33
2019-02-15T22:45:28.051Z,102614.88
2019-02-15T22:47:56.929Z,102606.59
2019-02-15T22:50:25.791Z,102607.72
2019-02-15T22:52:54.649Z,102612.15
2019-02-15T22:55:23.547Z,102607.08
2019-02-15T22:57:52.439Z,102608.95
2019-02-15T23:00:24.387Z,102604.94
2019-02-15T23:02:53.269Z,102601.12
2019-02-15T23:05:22.164Z,102595.76
2019-02-15T23:07:51.023Z,102592.77
2019-02-15T23:10:19.996Z,102601.62
2019-02-15T23:12:48.859Z,102594.16
2019-02-15T23:15:17.721Z,102589.55
2019-02-15T23:17:46.611Z,102595.33
2019-02-15T23:20:15.520Z,102596.17
2019-02-15T23:22:44.378Z,102594.30
2019-02-15T23:25:13.226Z,102595.84
2019-02-15T23:27:42.107Z,102589.96
2019-02-15T23:30:11.037Z,102592.53
2019-02-15T23:32:39.927Z,102590.70
2019-02-15T23:35:08.784Z,102588.81
2019-02-15T23:37:37.650Z,102592.23
2019-02-15T23:40:06.518Z,102582.97
2019-02-15T23:42:35.406Z,102585.80
2019-02-15T23:45:04.843Z,102584.16
2019-02-15T23:47:33.710Z,102587.03
2019-02-15T23:50:02.570Z,102574.54
2019-02-15T23:52:31.441Z,102581.00
2019-02-15T23:55:00.325Z,102575.48
2019-02-15T23:57:29.199Z,102575.19
2019-02-15T23:59:58.104Z,102574.64
